createdAt,value
2018-12-24T00:02:58.670Z,3.27
2018-12-24T00:05:27.228Z,3.80
2018-12-24T00:08:14.936Z,6.70
2018-12-24T00:10:43.581Z,4.27
2018-12-24T00:13:12.178Z,7.20
2018-12-24T00:15:40.743Z,5.13
2018-12-24T00:18:09.326Z,6.40
2018-12-24T00:20:37.881Z,4.97
2018-12-24T00:23:06.469Z,6.20
2018-12-24T00:25:54.140Z,3.13
2018-12-24T00:28:22.734Z,3.50
2018-12-24T00:30:51.296Z,11.07
2018-12-24T00:33:19.883Z,3.93
2018-12-24T00:35:48.431Z,3.10
2018-12-24T00:38:17.007Z,3.93
2018-12-24T00:40:45.572Z,2.57
2018-12-24T00:43:14.175Z,3.07
2018-12-24T00:45:42.724Z,3.27
2018-12-24T00:48:11.346Z,1.87
2018-12-24T00:50:39.892Z,1.37
2018-12-24T00:53:08.482Z,1.97
2018-12-24T00:55:37.072Z,1.53
2018-12-24T00:58:05.613Z,1.70
2018-12-24T01:00:34.165Z,2.73
2018-12-24T01:03:02.748Z,2.70
2018-12-24T01:05:31.311Z,3.27
2018-12-24T01:08:20.532Z,6.90
2018-12-24T01:10:49.106Z,4.67
2018-12-24T01:13:17.690Z,5.37
2018-12-24T01:15:46.276Z,7.63
2018-12-24T01:18:14.898Z,7.80
2018-12-24T01:20:43.471Z,7.23
2018-12-24T01:23:12.090Z,8.27
2018-12-24T01:25:40.664Z,6.60
2018-12-24T01:28:09.301Z,6.00
2018-12-24T01:30:37.882Z,6.77
2018-12-24T01:33:06.464Z,10.13
2018-12-24T01:35:35.022Z,9.03
2018-12-24T01:38:03.609Z,15.80
2018-12-24T01:40:32.158Z,7.53
2018-12-24T01:43:00.736Z,5.83
2018-12-24T01:45:29.296Z,4.87
2018-12-24T01:47:57.878Z,7.93
2018-12-24T01:50:26.429Z,6.23
2018-12-24T01:52:55.014Z,6.33
2018-12-24T01:55:23.567Z,10.03
2018-12-24T01:57:52.153Z,5.40
2018-12-24T02:00:20.728Z,6.93
2018-12-24T02:02:49.322Z,15.63
2018-12-24T02:05:17.885Z,6.20
2018-12-24T02:07:46.471Z,4.93
2018-12-24T02:10:15.025Z,6.30
2018-12-24T02:12:43.616Z,6.33
2018-12-24T02:15:12.176Z,5.50
2018-12-24T02:17:40.850Z,8.13
2018-12-24T02:20:09.409Z,8.13
2018-12-24T02:22:38.038Z,11.90
2018-12-24T02:25:06.634Z,7.47
2018-12-24T02:27:35.213Z,6.17
2018-12-24T02:30:24.425Z,5.30
2018-12-24T02:32:53.013Z,9.13
2018-12-24T02:35:21.570Z,7.37
2018-12-24T02:37:50.139Z,9.87
2018-12-24T02:40:18.730Z,8.47
2018-12-24T02:43:06.624Z,9.17
2018-12-24T02:45:35.187Z,10.93
2018-12-24T02:48:03.771Z,8.53
2018-12-24T02:50:32.386Z,12.03
2018-12-24T02:53:00.961Z,11.07
2018-12-24T02:55:48.895Z,9.13
2018-12-24T02:58:17.483Z,9.03
2018-12-24T03:00:46.043Z,9.40
2018-12-24T03:03:14.628Z,8.93
2018-12-24T03:05:43.209Z,5.70
2018-12-24T03:08:11.809Z,6.83
2018-12-24T03:10:40.400Z,5.70
2018-12-24T03:13:08.971Z,4.87
2018-12-24T03:15:37.574Z,4.57
2018-12-24T03:18:06.176Z,5.77
2018-12-24T03:20:34.782Z,5.47
2018-12-24T03:23:03.374Z,4.17
2018-12-24T03:25:31.969Z,3.43
2018-12-24T03:28:00.529Z,6.17
2018-12-24T03:30:49.916Z,4.13
2018-12-24T03:33:18.479Z,5.03
2018-12-24T03:35:47.075Z,8.23
2018-12-24T03:38:15.640Z,3.93
2018-12-24T03:40:44.231Z,4.47
2018-12-24T03:43:13.239Z,4.50
2018-12-24T03:45:43.105Z,4.43
2018-12-24T03:48:11.680Z,3.73
2018-12-24T03:50:40.282Z,5.67
2018-12-24T03:53:08.882Z,3.47
2018-12-24T03:55:37.468Z,7.63
2018-12-24T03:58:06.070Z,5.83
2018-12-24T04:00:34.657Z,4.93
2018-12-24T04:03:03.270Z,2.70
2018-12-24T04:05:31.857Z,6.07
2018-12-24T04:08:00.421Z,3.57
2018-12-24T04:10:29.000Z,4.30
2018-12-24T04:12:57.584Z,2.90
2018-12-24T04:15:26.172Z,3.40
2018-12-24T04:17:54.782Z,4.30
2018-12-24T04:20:23.407Z,8.00
2018-12-24T04:22:51.943Z,4.50
2018-12-24T04:25:20.530Z,7.23
2018-12-24T04:27:49.109Z,3.23
2018-12-24T04:30:17.690Z,4.50
2018-12-24T04:32:46.306Z,2.87
2018-12-24T04:35:14.877Z,3.87
2018-12-24T04:37:43.496Z,4.33
2018-12-24T04:40:12.079Z,3.50
2018-12-24T04:42:40.699Z,3.77
2018-12-24T04:45:09.279Z,3.63
2018-12-24T04:47:37.849Z,3.57
2018-12-24T04:50:06.432Z,1.83
2018-12-24T04:52:35.076Z,2.97
2018-12-24T04:55:03.653Z,3.40
2018-12-24T04:57:32.250Z,4.53
2018-12-24T05:00:00.831Z,3.63
2018-12-24T05:02:29.412Z,3.47
2018-12-24T05:04:57.982Z,5.70
2018-12-24T05:07:26.549Z,2.50
2018-12-24T05:09:55.144Z,3.30
2018-12-24T05:12:23.720Z,2.93
2018-12-24T05:14:52.306Z,3.63
2018-12-24T05:17:20.896Z,4.23
2018-12-24T05:19:49.483Z,4.57
2018-12-24T05:22:18.038Z,2.70
2018-12-24T05:24:46.622Z,3.37
2018-12-24T05:27:15.196Z,3.80
2018-12-24T05:29:43.779Z,3.40
2018-12-24T05:32:12.343Z,3.33
2018-12-24T05:34:40.904Z,2.80
2018-12-24T05:37:09.487Z,2.73
2018-12-24T05:39:38.048Z,3.13
2018-12-24T05:42:06.626Z,3.03
2018-12-24T05:44:35.195Z,4.97
2018-12-24T05:47:03.777Z,4.93
2018-12-24T05:49:32.344Z,2.70
2018-12-24T05:52:00.926Z,3.73
2018-12-24T05:54:29.489Z,4.87
2018-12-24T05:56:58.061Z,4.43
2018-12-24T05:59:26.618Z,2.73
2018-12-24T06:01:55.205Z,3.17
2018-12-24T06:04:23.762Z,4.93
2018-12-24T06:06:52.346Z,4.37
2018-12-24T06:09:20.914Z,1.87
2018-12-24T06:11:49.500Z,2.87
2018-12-24T06:14:18.058Z,2.00
2018-12-24T06:16:46.641Z,3.00
2018-12-24T06:19:15.226Z,1.80
2018-12-24T06:21:43.808Z,1.93
2018-12-24T06:24:12.393Z,2.00
2018-12-24T06:26:40.991Z,2.43
2018-12-24T06:29:09.560Z,2.77
2018-12-24T06:31:38.147Z,1.83
2018-12-24T06:34:06.696Z,3.00
2018-12-24T06:36:35.275Z,1.87
2018-12-24T06:39:24.469Z,1.27
2018-12-24T06:41:53.119Z,2.33
2018-12-24T06:44:21.699Z,1.63
2018-12-24T06:46:50.298Z,1.40
2018-12-24T06:49:18.858Z,1.33
2018-12-24T06:51:47.462Z,2.13
2018-12-24T06:54:16.027Z,1.70
2018-12-24T06:56:44.613Z,1.83
2018-12-24T06:59:13.180Z,1.10
2018-12-24T07:01:41.788Z,2.60
2018-12-24T07:04:10.360Z,1.20
2018-12-24T07:06:38.945Z,1.80
2018-12-24T07:09:07.538Z,2.03
2018-12-24T07:11:36.137Z,1.47
2018-12-24T07:14:04.709Z,2.53
2018-12-24T07:16:33.308Z,1.20
2018-12-24T07:19:01.895Z,2.17
2018-12-24T07:21:49.614Z,1.60
2018-12-24T07:24:18.250Z,1.77
2018-12-24T07:26:46.827Z,2.00
2018-12-24T07:29:15.387Z,1.70
2018-12-24T07:31:43.966Z,2.33
2018-12-24T07:34:12.530Z,1.97
2018-12-24T07:36:41.131Z,3.17
2018-12-24T07:39:09.700Z,2.70
2018-12-24T07:41:38.293Z,7.00
2018-12-24T07:44:06.846Z,2.40
2018-12-24T07:46:35.429Z,2.53
2018-12-24T07:49:03.981Z,2.07
2018-12-24T07:51:32.599Z,1.73
2018-12-24T07:54:01.175Z,2.23
2018-12-24T07:56:29.753Z,2.97
2018-12-24T07:58:58.420Z,2.27
2018-12-24T08:01:27.001Z,2.13
2018-12-24T08:03:55.586Z,1.57
2018-12-24T08:06:24.134Z,2.23
2018-12-24T08:08:52.720Z,1.30
2018-12-24T08:11:21.288Z,1.97
2018-12-24T08:13:49.989Z,3.73
2018-12-24T08:16:18.559Z,2.57
2018-12-24T08:19:06.495Z,2.50
2018-12-24T08:21:35.130Z,1.90
2018-12-24T08:24:03.722Z,1.50
2018-12-24T08:26:32.273Z,2.17
2018-12-24T08:29:00.854Z,1.33
2018-12-24T08:34:16.859Z,1.67
2018-12-24T08:36:45.425Z,2.80
2018-12-24T08:39:14.071Z,1.70
2018-12-24T08:41:42.590Z,2.23
2018-12-24T08:44:11.185Z,1.33
2018-12-24T08:46:39.743Z,1.40
2018-12-24T08:49:08.341Z,2.10
2018-12-24T08:54:26.017Z,2.10
2018-12-24T08:56:54.594Z,1.90
2018-12-24T08:59:23.145Z,4.60
2018-12-24T09:01:51.714Z,2.47
2018-12-24T09:04:20.313Z,2.67
2018-12-24T09:06:48.953Z,1.43
2018-12-24T09:09:18.982Z,2.57
2018-12-24T09:11:47.804Z,2.70
2018-12-24T09:14:35.504Z,1.67
2018-12-24T09:17:04.059Z,5.50
2018-12-24T09:19:32.642Z,2.37
2018-12-24T09:22:01.210Z,1.97
2018-12-24T09:24:29.809Z,2.23
2018-12-24T09:26:58.376Z,2.97
2018-12-24T09:29:26.960Z,2.77
2018-12-24T09:31:55.524Z,1.93
2018-12-24T09:34:24.126Z,3.40
2018-12-24T09:36:52.698Z,2.70
2018-12-24T09:39:21.279Z,2.27
2018-12-24T09:41:49.831Z,2.93
2018-12-24T09:44:18.434Z,2.17
2018-12-24T09:46:46.994Z,2.10
2018-12-24T09:49:15.635Z,3.17
2018-12-24T09:51:44.209Z,2.30
2018-12-24T09:54:12.820Z,3.27
2018-12-24T09:56:41.459Z,3.03
2018-12-24T09:59:10.053Z,1.67
2018-12-24T10:01:38.596Z,2.33
2018-12-24T10:04:28.207Z,2.33
2018-12-24T10:09:53.027Z,2.47
2018-12-24T10:12:21.599Z,3.43
2018-12-24T10:14:50.192Z,2.20
2018-12-24T10:17:18.749Z,3.33
2018-12-24T10:19:47.332Z,4.27
2018-12-24T10:22:15.903Z,5.57
2018-12-24T10:24:44.472Z,3.77
2018-12-24T10:27:13.035Z,3.03
2018-12-24T10:30:00.986Z,2.70
2018-12-24T10:32:29.551Z,3.30
2018-12-24T10:34:58.153Z,2.47
2018-12-24T10:37:26.724Z,2.87
2018-12-24T10:40:14.581Z,2.40
2018-12-24T10:42:43.142Z,3.03
2018-12-24T10:45:16.316Z,2.90
2018-12-24T10:47:42.050Z,2.00
2018-12-24T10:50:29.829Z,2.33
2018-12-24T10:52:58.382Z,5.17
2018-12-24T10:55:26.967Z,3.47
2018-12-24T10:57:55.644Z,6.70
2018-12-24T11:00:24.236Z,2.90
2018-12-24T11:02:52.805Z,2.20
2018-12-24T11:05:21.389Z,2.20
2018-12-24T11:07:49.954Z,2.23
2018-12-24T11:10:18.537Z,3.03
2018-12-24T11:13:06.410Z,2.37
2018-12-24T11:15:34.990Z,2.87
2018-12-24T11:23:25.373Z,2.13
2018-12-24T11:25:53.967Z,3.43
2018-12-24T11:28:22.541Z,2.23
2018-12-24T11:30:51.157Z,2.70
2018-12-24T11:33:19.724Z,2.37
2018-12-24T11:35:48.323Z,2.67
2018-12-24T11:38:16.913Z,2.43
2018-12-24T11:40:45.507Z,2.33
2018-12-24T11:43:14.055Z,4.43
2018-12-24T11:45:42.664Z,3.37
2018-12-24T11:48:11.244Z,1.97
2018-12-24T11:50:39.848Z,3.13
2018-12-24T11:53:08.418Z,2.20
2018-12-24T11:55:37.013Z,2.40
2018-12-24T11:58:24.767Z,2.57
2018-12-24T12:00:53.359Z,1.93
2018-12-24T12:03:21.920Z,1.90
2018-12-24T12:05:50.505Z,2.47
2018-12-24T12:08:19.069Z,3.63
2018-12-24T12:10:47.648Z,5.30
2018-12-24T12:13:16.222Z,2.83
2018-12-24T12:16:03.977Z,1.93
2018-12-24T12:18:32.494Z,2.00
2018-12-24T12:21:20.197Z,3.90
2018-12-24T12:23:48.763Z,3.07
2018-12-24T12:26:17.348Z,3.70
2018-12-24T12:28:45.923Z,4.27
2018-12-24T12:31:14.529Z,6.33
2018-12-24T12:33:43.093Z,2.80
2018-12-24T12:36:11.675Z,2.33
2018-12-24T12:38:40.280Z,5.63
2018-12-24T12:41:08.864Z,4.20
2018-12-24T12:43:37.430Z,3.17
2018-12-24T12:46:06.020Z,4.20
2018-12-24T12:48:34.591Z,2.90
2018-12-24T12:51:03.282Z,2.87
2018-12-24T12:53:31.891Z,3.13
2018-12-24T12:56:00.521Z,3.50
2018-12-24T12:58:29.064Z,2.20
2018-12-24T13:00:57.662Z,4.47
2018-12-24T13:03:26.227Z,2.87
2018-12-24T13:05:54.815Z,2.73
2018-12-24T13:08:23.382Z,2.90
2018-12-24T13:10:51.986Z,1.93
2018-12-24T13:13:20.549Z,2.00
2018-12-24T13:15:49.137Z,2.37
2018-12-24T13:18:17.732Z,1.70
2018-12-24T13:20:46.402Z,2.73
2018-12-24T13:23:14.973Z,3.03
2018-12-24T13:25:43.571Z,2.23
2018-12-24T13:28:12.191Z,2.67
2018-12-24T13:30:40.775Z,4.27
2018-12-24T13:33:09.358Z,3.00
2018-12-24T13:35:37.954Z,4.23
2018-12-24T13:38:06.578Z,3.00
2018-12-24T13:40:35.180Z,4.87
2018-12-24T13:43:03.761Z,2.07
2018-12-24T13:45:32.367Z,3.50
2018-12-24T13:48:08.461Z,2.80
2018-12-24T13:50:37.044Z,3.23
2018-12-24T13:53:05.674Z,2.80
2018-12-24T13:55:34.265Z,4.70
2018-12-24T13:58:02.828Z,2.97
2018-12-24T14:00:31.408Z,3.00
2018-12-24T14:02:59.965Z,3.50
2018-12-24T14:08:02.406Z,2.03
2018-12-24T14:10:30.971Z,4.67
2018-12-24T14:12:59.529Z,2.30
2018-12-24T14:15:28.105Z,2.57
2018-12-24T14:17:56.681Z,2.53
2018-12-24T14:22:58.820Z,2.30
2018-12-24T14:25:27.406Z,2.00
2018-12-24T14:27:56.022Z,4.80
2018-12-24T14:30:24.602Z,4.90
2018-12-24T14:32:53.189Z,3.77
2018-12-24T14:35:41.020Z,4.80
2018-12-24T14:38:09.579Z,2.80
2018-12-24T14:40:38.171Z,4.93
2018-12-24T14:43:06.748Z,2.90
2018-12-24T14:45:35.332Z,2.90
2018-12-24T14:48:03.915Z,2.73
2018-12-24T14:50:32.497Z,2.77
2018-12-24T14:53:01.064Z,2.23
2018-12-24T14:55:29.657Z,2.27
2018-12-24T14:58:17.406Z,3.53
2018-12-24T15:00:45.987Z,3.43
2018-12-24T15:03:14.553Z,2.87
2018-12-24T15:05:43.150Z,3.00
2018-12-24T15:08:11.719Z,3.50
2018-12-24T15:10:40.301Z,3.17
2018-12-24T15:13:08.882Z,4.47
2018-12-24T15:15:37.473Z,3.50
2018-12-24T15:18:06.023Z,5.50
2018-12-24T15:20:34.585Z,4.57
2018-12-24T15:23:03.187Z,2.80
2018-12-24T15:25:31.750Z,4.10
2018-12-24T15:28:00.353Z,3.60
2018-12-24T15:30:28.901Z,4.70
2018-12-24T15:32:57.498Z,4.43
2018-12-24T15:35:26.057Z,8.30
2018-12-24T15:37:54.710Z,3.50
2018-12-24T15:40:23.274Z,4.63
2018-12-24T15:42:51.860Z,5.50
2018-12-24T15:45:20.419Z,3.17
2018-12-24T15:47:49.002Z,3.90
2018-12-24T15:50:17.645Z,3.37
2018-12-24T15:52:46.230Z,3.73
2018-12-24T15:55:14.786Z,5.03
2018-12-24T15:57:43.394Z,5.80
2018-12-24T16:00:11.981Z,4.33
2018-12-24T16:02:40.561Z,4.47
2018-12-24T16:05:09.125Z,4.30
2018-12-24T16:07:37.709Z,4.53
2018-12-24T16:10:06.347Z,5.90
2018-12-24T16:12:34.948Z,3.27
2018-12-24T16:15:03.501Z,3.30
2018-12-24T16:17:32.114Z,6.13
2018-12-24T16:20:00.695Z,3.43
2018-12-24T16:22:31.044Z,6.20
2018-12-24T16:24:59.563Z,3.23
2018-12-24T16:30:01.672Z,4.27
2018-12-24T16:32:30.250Z,5.90
2018-12-24T16:34:58.812Z,5.40
2018-12-24T16:37:27.441Z,7.00
2018-12-24T16:39:55.985Z,4.83
2018-12-24T16:42:24.572Z,3.63
2018-12-24T16:44:53.201Z,4.10
2018-12-24T16:47:21.785Z,3.00
2018-12-24T16:49:50.340Z,5.77
2018-12-24T16:52:18.920Z,4.27
2018-12-24T16:57:36.572Z,3.50
2018-12-24T17:00:25.929Z,3.70
2018-12-24T17:02:54.523Z,3.53
2018-12-24T17:05:23.088Z,5.83
2018-12-24T17:07:51.679Z,5.33
2018-12-24T17:10:20.274Z,5.83
2018-12-24T17:12:48.858Z,3.53
2018-12-24T17:15:17.432Z,6.23
2018-12-24T17:17:46.030Z,9.23
2018-12-24T17:20:14.596Z,3.80
2018-12-24T17:22:43.153Z,4.07
2018-12-24T17:25:11.736Z,8.57
2018-12-24T17:27:40.386Z,5.43
2018-12-24T17:30:08.967Z,4.80
2018-12-24T17:32:37.530Z,4.87
2018-12-24T17:35:26.906Z,7.90
2018-12-24T17:37:55.488Z,4.43
2018-12-24T17:40:24.058Z,5.77
2018-12-24T17:42:52.688Z,6.93
2018-12-24T17:45:21.300Z,6.30
2018-12-24T17:47:49.847Z,6.13
2018-12-24T17:50:37.544Z,8.30
2018-12-24T17:53:06.140Z,5.80
2018-12-24T17:55:34.713Z,4.97
2018-12-24T17:58:03.267Z,6.03
2018-12-24T18:00:31.847Z,6.77
2018-12-24T18:03:00.401Z,7.07
2018-12-24T18:05:28.981Z,5.57
2018-12-24T18:07:57.543Z,7.10
2018-12-24T18:10:26.133Z,5.20
2018-12-24T18:12:54.695Z,4.70
2018-12-24T18:15:23.288Z,6.00
2018-12-24T18:17:51.859Z,5.13
2018-12-24T18:20:20.456Z,8.00
2018-12-24T18:22:49.020Z,6.73
2018-12-24T18:25:17.633Z,7.37
2018-12-24T18:27:46.215Z,6.17
2018-12-24T18:30:14.850Z,6.10
2018-12-24T18:32:43.412Z,5.63
2018-12-24T18:35:11.985Z,6.00
2018-12-24T18:37:40.553Z,7.33
2018-12-24T18:40:09.138Z,4.03
2018-12-24T18:42:37.735Z,10.13
2018-12-24T18:45:06.376Z,7.07
2018-12-24T18:47:34.934Z,4.20
2018-12-24T18:50:24.143Z,5.17
2018-12-24T18:52:52.707Z,6.50
2018-12-24T18:55:21.303Z,7.93
2018-12-24T18:57:49.857Z,5.43
2018-12-24T19:00:18.448Z,11.07
2018-12-24T19:02:47.010Z,5.87
2018-12-24T19:05:15.615Z,5.03
2018-12-24T19:07:44.172Z,7.63
2018-12-24T19:10:12.763Z,8.27
2018-12-24T19:12:41.347Z,5.03
2018-12-24T19:15:09.929Z,4.97
2018-12-24T19:17:41.522Z,9.23
2018-12-24T19:20:29.608Z,9.07
2018-12-24T19:22:58.222Z,5.13
2018-12-24T19:25:26.793Z,6.23
2018-12-24T19:27:55.387Z,5.27
2018-12-24T19:30:23.972Z,10.17
2018-12-24T19:32:52.549Z,9.10
2018-12-24T19:38:08.566Z,6.10
2018-12-24T19:40:37.123Z,6.17
2018-12-24T19:43:05.709Z,4.93
2018-12-24T19:45:34.270Z,4.70
2018-12-24T19:48:02.877Z,6.73
2018-12-24T19:50:31.466Z,4.23
2018-12-24T19:53:00.074Z,5.90
2018-12-24T19:55:28.643Z,5.97
2018-12-24T19:57:57.277Z,10.13
2018-12-24T20:00:25.871Z,6.40
2018-12-24T20:02:54.460Z,8.13
2018-12-24T20:05:23.033Z,5.13
2018-12-24T20:07:51.629Z,6.33
2018-12-24T20:10:20.201Z,5.17
2018-12-24T20:12:48.809Z,5.87
2018-12-24T20:15:17.483Z,6.47
2018-12-24T20:17:46.114Z,7.20
2018-12-24T20:20:14.765Z,5.93
2018-12-24T20:22:43.350Z,4.67
2018-12-24T20:25:11.917Z,4.40
2018-12-24T20:27:40.525Z,5.57
2018-12-24T20:30:28.250Z,7.90
2018-12-24T20:35:30.709Z,8.23
2018-12-24T20:37:59.301Z,6.97
2018-12-24T20:40:27.916Z,7.30
2018-12-24T20:42:56.469Z,8.83
2018-12-24T20:45:25.067Z,6.10
2018-12-24T20:47:53.662Z,5.20
2018-12-24T20:50:22.267Z,6.50
2018-12-24T20:52:50.976Z,7.37
2018-12-24T20:55:19.585Z,6.53
2018-12-24T20:57:48.141Z,5.00
2018-12-24T21:00:16.726Z,7.53
2018-12-24T21:02:45.292Z,5.57
2018-12-24T21:05:13.875Z,5.90
2018-12-24T21:07:42.750Z,4.90
2018-12-24T21:10:11.355Z,7.83
2018-12-24T21:12:39.938Z,5.63
2018-12-24T21:15:08.535Z,6.93
2018-12-24T21:17:38.992Z,5.70
2018-12-24T21:20:28.349Z,6.57
2018-12-24T21:22:56.926Z,6.30
2018-12-24T21:25:25.606Z,7.17
2018-12-24T21:27:54.153Z,6.03
2018-12-24T21:30:22.814Z,7.00
2018-12-24T21:32:51.382Z,6.60
2018-12-24T21:35:19.968Z,7.13
2018-12-24T21:37:48.525Z,7.77
2018-12-24T21:40:17.320Z,7.30
2018-12-24T21:42:54.415Z,7.43
2018-12-24T21:45:16.264Z,6.07
2018-12-24T21:47:44.821Z,6.60
2018-12-24T21:53:00.916Z,11.50
2018-12-24T21:58:16.989Z,5.17
2018-12-24T22:00:45.575Z,7.37
2018-12-24T22:03:14.138Z,8.43
2018-12-24T22:05:42.843Z,9.87
2018-12-24T22:08:11.414Z,7.40
2018-12-24T22:10:39.962Z,8.03
2018-12-24T22:13:08.710Z,5.73
2018-12-24T22:15:37.351Z,7.40
2018-12-24T22:18:05.917Z,6.17
2018-12-24T22:23:27.791Z,6.87
2018-12-24T22:25:56.384Z,12.37
2018-12-24T22:28:25.139Z,6.83
2018-12-24T22:30:53.710Z,7.07
2018-12-24T22:33:22.302Z,7.23
2018-12-24T22:35:50.881Z,7.40
2018-12-24T22:38:19.655Z,10.10
2018-12-24T22:40:48.218Z,8.13
2018-12-24T22:43:16.872Z,7.80
2018-12-24T22:45:45.508Z,7.40
2018-12-24T22:48:14.106Z,12.30
2018-12-24T22:50:42.658Z,7.10
2018-12-24T22:53:11.436Z,5.33
2018-12-24T22:58:27.729Z,9.17
2018-12-24T23:03:45.340Z,5.80
2018-12-24T23:06:13.910Z,11.73
2018-12-24T23:11:36.305Z,7.50
2018-12-24T23:14:04.890Z,6.47
2018-12-24T23:16:52.666Z,5.73
2018-12-24T23:19:21.220Z,4.97
2018-12-24T23:22:11.070Z,6.40
2018-12-24T23:24:39.631Z,6.30
2018-12-24T23:27:08.257Z,5.77
2018-12-24T23:29:56.133Z,10.03
2018-12-24T23:32:24.716Z,7.17
2018-12-24T23:34:53.353Z,5.23
2018-12-24T23:37:22.004Z,7.43
2018-12-24T23:39:50.574Z,6.83
2018-12-24T23:42:20.881Z,5.73
2018-12-24T23:44:49.510Z,8.00
2018-12-24T23:47:18.173Z,6.93
2018-12-24T23:49:46.744Z,12.43
2018-12-24T23:52:15.563Z,6.07
2018-12-24T23:57:31.875Z,8.80
